首页
METAR-TAF:

METAR-TAF

机场 :

Fond Du Lac County Airport

Fond du Lac, 威斯康辛州, 美国

纬度: 43-46-12N, 经度: 088-29-11W, 海拔: 246米

当前天气观测

该预报发布于31分钟前的07:53 UTC
风速12节,风向北转东北
温度 3°C
湿度 75%
气压 1020 hPa
能見度: 16.1公里
阴天层高于2600英尺

METAR: KFLD 310753Z AUTO 02012KT 10SM OVC026 03/M01 A3013 RMK AO2 SLP209 T00281011

时间: 03:24 (08:24 UTC)


TAF: 丢失

超过4000个机场的气象观测和天气预报(METAR&TAF报告)。

可查询的气象台以黄色和红色小点在地图上表示。

将鼠标移到小点上方,可查看气象台名称。

然后点击查看天气观测和预报。

如需切换地图:点击带黑十字的绿色按钮放大地图;点击带横线的绿色按钮缩小地图;或者点击绿色箭头查看邻近地区的地图。


METAR-TAF: